createdAt,value
2022-08-02T00:03:03.941Z,22.24
2022-08-02T00:06:09.499Z,22.20
2022-08-02T00:09:15.785Z,22.17
2022-08-02T00:12:21.455Z,22.14
2022-08-02T00:15:27.282Z,22.12
2022-08-02T00:18:32.934Z,22.08
2022-08-02T00:21:38.515Z,22.05
2022-08-02T00:24:44.065Z,22.02
2022-08-02T00:27:49.587Z,22.01
2022-08-02T00:30:55.046Z,21.99
2022-08-02T00:34:27.122Z,21.98
2022-08-02T00:37:24.605Z,21.96
2022-08-02T00:40:30.184Z,21.93
2022-08-02T00:43:35.712Z,21.93
2022-08-02T00:46:41.360Z,21.92
2022-08-02T00:49:46.886Z,21.90
2022-08-02T00:52:52.350Z,21.89
2022-08-02T00:55:57.841Z,21.88
2022-08-02T00:59:05.096Z,21.87
2022-08-02T01:02:11.262Z,21.86
2022-08-02T01:05:17.609Z,21.82
2022-08-02T01:08:21.621Z,21.81
2022-08-02T01:11:36.436Z,21.77
2022-08-02T01:14:44.036Z,21.78
2022-08-02T01:17:55.665Z,21.76
2022-08-02T01:21:34.003Z,21.73
2022-08-02T01:24:57.193Z,21.71
2022-08-02T01:28:35.087Z,21.68
2022-08-02T01:31:45.839Z,21.66
2022-08-02T01:34:57.923Z,21.62
2022-08-02T01:38:08.821Z,21.59
2022-08-02T01:41:19.387Z,21.56
2022-08-02T01:44:29.458Z,21.54
2022-08-02T01:47:39.613Z,21.52
2022-08-02T01:50:47.983Z,21.51
2022-08-02T01:53:54.237Z,21.51
2022-08-02T01:57:00.593Z,21.50
2022-08-02T02:00:10.189Z,21.48
2022-08-02T02:03:20.602Z,21.47
2022-08-02T02:06:26.989Z,21.46
2022-08-02T02:09:37.152Z,21.47
2022-08-02T02:12:59.561Z,21.46
2022-08-02T02:16:07.540Z,21.46
2022-08-02T02:19:14.239Z,21.46
2022-08-02T02:22:27.252Z,21.46
2022-08-02T02:25:36.033Z,21.47
2022-08-02T02:28:50.094Z,21.46
2022-08-02T02:31:56.449Z,21.47
2022-08-02T02:35:02.808Z,21.49
2022-08-02T02:38:14.577Z,21.50
2022-08-02T02:41:22.206Z,21.53
2022-08-02T02:44:29.694Z,21.56
2022-08-02T02:47:40.456Z,21.61
2022-08-02T02:50:48.521Z,21.66
2022-08-02T02:54:33.118Z,21.72
2022-08-02T02:57:22.104Z,21.74
2022-08-02T03:00:41.834Z,21.76
2022-08-02T03:03:48.320Z,21.82
2022-08-02T03:06:53.981Z,21.87
2022-08-02T03:09:59.836Z,21.94
2022-08-02T03:13:06.227Z,22.00
2022-08-02T03:16:11.968Z,22.06
2022-08-02T03:19:18.298Z,22.12
2022-08-02T03:22:26.252Z,22.17
2022-08-02T03:25:31.807Z,22.21
2022-08-02T03:28:38.624Z,22.28
2022-08-02T03:31:47.657Z,22.33
2022-08-02T03:34:53.511Z,22.36
2022-08-02T03:38:01.280Z,22.39
2022-08-02T03:41:07.621Z,22.43
2022-08-02T03:44:14.772Z,22.47
2022-08-02T03:47:21.235Z,22.50
2022-08-02T03:50:27.777Z,22.51
2022-08-02T03:53:35.264Z,22.53
2022-08-02T03:56:41.265Z,22.56
2022-08-02T03:59:47.744Z,22.60
2022-08-02T04:02:53.330Z,22.65
2022-08-02T04:06:00.874Z,22.70
2022-08-02T04:09:10.600Z,22.73
2022-08-02T04:12:16.092Z,22.75
2022-08-02T04:15:22.200Z,22.78
2022-08-02T04:18:40.120Z,22.79
2022-08-02T04:21:50.249Z,22.83
2022-08-02T04:25:01.154Z,22.86
2022-08-02T04:28:17.775Z,22.89
2022-08-02T04:31:24.203Z,22.93
2022-08-02T04:34:30.168Z,22.96
2022-08-02T04:37:36.636Z,22.98
2022-08-02T04:40:42.334Z,22.98
2022-08-02T04:43:47.825Z,22.99
2022-08-02T04:46:54.659Z,23.00
2022-08-02T04:50:00.206Z,23.01
2022-08-02T04:53:05.742Z,23.01
2022-08-02T04:56:11.394Z,23.01
2022-08-02T04:59:16.839Z,23.00
2022-08-02T05:02:22.295Z,22.99
2022-08-02T05:05:28.563Z,23.00
2022-08-02T05:08:34.428Z,23.03
2022-08-02T05:11:40.096Z,23.02
2022-08-02T05:14:44.627Z,23.02
2022-08-02T05:17:51.243Z,22.99
2022-08-02T05:20:58.390Z,23.02
2022-08-02T05:24:04.264Z,23.04
2022-08-02T05:27:17.160Z,23.09
2022-08-02T05:30:27.704Z,23.14
2022-08-02T05:33:31.754Z,23.19
2022-08-02T05:36:37.305Z,23.19
2022-08-02T05:39:55.549Z,23.24
2022-08-02T05:43:01.958Z,23.30
2022-08-02T05:46:07.627Z,23.35
2022-08-02T05:49:13.352Z,23.38
2022-08-02T05:52:22.047Z,23.43
2022-08-02T05:55:34.726Z,23.48
2022-08-02T05:58:49.608Z,23.54
2022-08-02T06:01:59.291Z,23.61
2022-08-02T06:05:11.652Z,23.66
2022-08-02T06:08:17.188Z,23.69
2022-08-02T06:11:25.579Z,23.73
2022-08-02T06:14:32.100Z,23.79
2022-08-02T06:17:41.876Z,23.85
2022-08-02T06:20:52.642Z,23.90
2022-08-02T06:23:59.715Z,23.94
2022-08-02T06:27:05.782Z,24.01
2022-08-02T06:30:12.928Z,24.06
2022-08-02T06:33:18.442Z,24.08
2022-08-02T06:36:33.425Z,24.11
2022-08-02T06:39:47.653Z,24.17
2022-08-02T06:42:58.916Z,24.22
2022-08-02T06:46:37.802Z,24.26
2022-08-02T06:49:50.935Z,24.30
2022-08-02T06:52:56.115Z,24.33
2022-08-02T06:56:02.179Z,24.32
2022-08-02T06:59:12.697Z,24.32
2022-08-02T07:02:18.177Z,24.35
2022-08-02T07:05:24.097Z,24.40
2022-08-02T07:08:32.481Z,24.46
2022-08-02T07:11:37.941Z,24.56
2022-08-02T07:14:43.563Z,24.74
2022-08-02T07:17:49.055Z,25.00
2022-08-02T07:20:54.592Z,25.34
2022-08-02T07:24:00.230Z,25.72
2022-08-02T07:27:13.566Z,26.10
2022-08-02T07:30:19.278Z,26.39
2022-08-02T07:33:37.724Z,26.52
2022-08-02T07:36:44.796Z,26.59
2022-08-02T07:39:51.605Z,26.66
2022-08-02T07:43:03.588Z,26.72
2022-08-02T07:46:10.010Z,26.83
2022-08-02T07:49:18.772Z,26.73
2022-08-02T07:52:24.268Z,26.17
2022-08-02T07:55:35.253Z,25.87
2022-08-02T07:58:45.836Z,26.13
2022-08-02T08:01:51.974Z,26.42
2022-08-02T08:04:58.442Z,26.51
2022-08-02T08:08:04.016Z,26.31
2022-08-02T08:11:09.746Z,26.15
2022-08-02T08:14:16.959Z,26.18
2022-08-02T08:17:22.783Z,26.66
2022-08-02T08:20:28.507Z,27.05
2022-08-02T08:23:35.565Z,26.93
2022-08-02T08:26:41.192Z,26.70
2022-08-02T08:29:45.384Z,26.59
2022-08-02T08:32:50.813Z,26.62
2022-08-02T08:35:56.811Z,26.77
2022-08-02T08:39:02.360Z,26.80
2022-08-02T08:42:09.272Z,26.69
2022-08-02T08:45:15.454Z,26.59
2022-08-02T08:48:30.365Z,26.61
2022-08-02T08:51:38.795Z,26.67
2022-08-02T08:54:45.429Z,26.72
2022-08-02T08:57:56.212Z,26.83
2022-08-02T09:01:02.523Z,26.95
2022-08-02T09:04:08.083Z,26.96
2022-08-02T09:07:12.044Z,26.87
2022-08-02T09:10:41.634Z,26.94
2022-08-02T09:13:54.453Z,27.16
2022-08-02T09:17:12.764Z,27.29
2022-08-02T09:20:18.382Z,27.20
2022-08-02T09:23:24.258Z,27.18
2022-08-02T09:26:30.612Z,27.26
2022-08-02T09:29:48.597Z,27.38
2022-08-02T09:33:05.533Z,27.49
2022-08-02T09:36:14.053Z,27.53
2022-08-02T09:39:19.538Z,27.46
2022-08-02T09:42:23.654Z,27.39
2022-08-02T09:45:38.038Z,27.34
2022-08-02T09:48:57.206Z,27.25
2022-08-02T09:52:04.252Z,27.17
2022-08-02T09:55:12.665Z,27.15
2022-08-02T09:58:21.887Z,27.10
2022-08-02T10:01:37.629Z,27.11
2022-08-02T10:04:53.181Z,27.04
2022-08-02T10:07:58.701Z,26.98
2022-08-02T10:11:04.761Z,27.03
2022-08-02T10:14:12.025Z,26.96
2022-08-02T10:17:18.242Z,27.03
2022-08-02T10:20:25.089Z,27.16
2022-08-02T10:23:35.428Z,27.30
2022-08-02T10:26:43.490Z,27.51
2022-08-02T10:29:53.969Z,27.75
2022-08-02T10:33:02.879Z,27.90
2022-08-02T10:36:10.177Z,27.88
2022-08-02T10:39:16.425Z,27.85
2022-08-02T10:42:46.853Z,27.91
2022-08-02T10:45:53.624Z,27.97
2022-08-02T10:52:34.966Z,28.28
2022-08-02T10:55:48.626Z,28.47
2022-08-02T10:59:26.699Z,28.64
2022-08-02T11:02:44.200Z,28.84
2022-08-02T11:06:04.160Z,28.97
2022-08-02T11:09:32.792Z,29.03
2022-08-02T11:13:03.765Z,29.13
2022-08-02T11:16:11.961Z,29.23
2022-08-02T11:19:17.748Z,29.35
2022-08-02T11:22:25.830Z,29.41
2022-08-02T11:26:01.380Z,29.49
2022-08-02T11:29:02.375Z,29.67
2022-08-02T11:32:09.347Z,29.70
2022-08-02T11:35:15.623Z,29.72
2022-08-02T11:38:23.869Z,29.77
2022-08-02T11:41:45.993Z,29.81
2022-08-02T11:44:53.536Z,29.82
2022-08-02T11:47:59.117Z,29.92
2022-08-02T11:51:13.112Z,29.99
2022-08-02T11:54:25.485Z,30.06
2022-08-02T11:58:03.227Z,29.98
2022-08-02T12:00:57.719Z,29.78
2022-08-02T12:04:05.076Z,29.64
2022-08-02T12:07:10.729Z,29.54
2022-08-02T12:10:19.362Z,29.56
2022-08-02T12:13:25.042Z,29.64
2022-08-02T12:16:55.180Z,29.64
2022-08-02T12:20:00.635Z,29.55
2022-08-02T12:23:06.641Z,29.54
2022-08-02T12:26:16.251Z,29.55
2022-08-02T12:29:56.011Z,29.64
2022-08-02T12:33:13.020Z,29.81
2022-08-02T12:36:20.569Z,29.88
2022-08-02T12:39:38.089Z,29.74
2022-08-02T12:42:50.769Z,29.48
2022-08-02T12:45:57.677Z,29.32
2022-08-02T12:49:18.265Z,29.24
2022-08-02T12:52:25.573Z,29.32
2022-08-02T12:56:01.651Z,29.44
2022-08-02T12:58:57.121Z,29.59
2022-08-02T13:02:06.553Z,29.56
2022-08-02T13:05:12.137Z,29.35
2022-08-02T13:08:17.596Z,29.15
2022-08-02T13:11:23.840Z,28.97
2022-08-02T13:14:29.280Z,28.79
2022-08-02T13:17:34.742Z,28.63
2022-08-02T13:20:44.736Z,28.50
2022-08-02T13:23:54.839Z,28.39
2022-08-02T13:27:08.387Z,28.40
2022-08-02T13:30:14.636Z,28.42
2022-08-02T13:33:20.361Z,28.48
2022-08-02T13:36:25.912Z,28.57
2022-08-02T13:39:31.349Z,28.64
2022-08-02T13:42:36.841Z,28.76
2022-08-02T13:45:42.304Z,28.76
2022-08-02T13:48:47.815Z,28.72
2022-08-02T13:51:53.253Z,28.73
2022-08-02T13:55:00.968Z,28.78
2022-08-02T13:58:06.872Z,28.82
2022-08-02T14:01:12.439Z,28.86
2022-08-02T14:04:17.912Z,28.74
2022-08-02T14:07:23.559Z,28.52
2022-08-02T14:10:30.403Z,28.39
2022-08-02T14:13:36.496Z,28.42
2022-08-02T14:16:42.028Z,28.48
2022-08-02T14:19:50.866Z,28.47
2022-08-02T14:22:56.279Z,28.53
2022-08-02T14:26:00.392Z,28.62
2022-08-02T14:29:06.107Z,28.70
2022-08-02T14:32:12.459Z,28.66
2022-08-02T14:35:18.338Z,28.52
2022-08-02T14:38:23.812Z,28.42
2022-08-02T14:41:29.453Z,28.39
2022-08-02T14:44:34.990Z,28.39
2022-08-02T14:47:40.457Z,28.32
2022-08-02T14:50:46.062Z,28.27
2022-08-02T14:54:02.409Z,28.28
2022-08-02T14:57:09.245Z,28.29
2022-08-02T15:00:17.961Z,28.22
2022-08-02T15:03:23.429Z,28.14
2022-08-02T15:06:32.987Z,28.13
2022-08-02T15:09:39.492Z,28.14
2022-08-02T15:12:45.554Z,28.14
2022-08-02T15:15:51.028Z,28.16
2022-08-02T15:18:56.480Z,28.16
2022-08-02T15:22:03.209Z,28.18
2022-08-02T15:25:14.762Z,28.14
2022-08-02T15:28:20.596Z,27.94
2022-08-02T15:31:32.731Z,27.78
2022-08-02T15:34:39.801Z,27.67
2022-08-02T15:37:45.260Z,27.55
2022-08-02T15:40:49.224Z,27.40
2022-08-02T15:44:00.834Z,27.27
2022-08-02T15:47:08.557Z,27.13
2022-08-02T15:50:14.309Z,26.96
2022-08-02T15:53:19.930Z,26.80
2022-08-02T15:56:25.582Z,26.72
2022-08-02T15:59:31.041Z,26.65
2022-08-02T16:02:34.965Z,26.63
2022-08-02T16:05:40.448Z,26.59
2022-08-02T16:08:54.632Z,26.51
2022-08-02T16:12:00.763Z,26.44
2022-08-02T16:15:07.672Z,26.39
2022-08-02T16:18:13.271Z,26.33
2022-08-02T16:21:19.460Z,26.27
2022-08-02T16:24:26.278Z,26.22
2022-08-02T16:27:32.033Z,26.17
2022-08-02T16:30:39.791Z,26.14
2022-08-02T16:33:45.571Z,26.11
2022-08-02T16:36:51.093Z,26.08
2022-08-02T16:39:55.140Z,26.06
2022-08-02T16:43:00.566Z,26.04
2022-08-02T16:46:06.943Z,26.00
2022-08-02T16:50:05.297Z,25.93
2022-08-02T16:52:41.208Z,25.88
2022-08-02T16:55:51.929Z,25.86
2022-08-02T16:59:00.021Z,25.82
2022-08-02T17:02:11.691Z,25.78
2022-08-02T17:05:24.206Z,25.73
2022-08-02T17:08:54.643Z,25.68
2022-08-02T17:12:00.795Z,25.63
2022-08-02T17:15:53.035Z,25.58
2022-08-02T17:18:31.069Z,25.50
2022-08-02T17:21:36.513Z,25.44
2022-08-02T17:24:42.469Z,25.37
2022-08-02T17:27:52.917Z,25.29
2022-08-02T17:31:01.556Z,25.19
2022-08-02T17:34:07.751Z,25.12
2022-08-02T17:37:14.436Z,25.03
2022-08-02T17:40:20.058Z,24.93
2022-08-02T17:43:29.551Z,24.93
2022-08-02T17:46:35.420Z,25.36
2022-08-02T17:49:44.482Z,25.73
2022-08-02T17:53:08.554Z,25.97
2022-08-02T17:56:14.140Z,26.10
2022-08-02T17:59:22.552Z,26.21
2022-08-02T18:02:36.992Z,26.29
2022-08-02T18:05:53.015Z,26.34
2022-08-02T18:09:00.849Z,26.35
2022-08-02T18:12:07.201Z,26.28
2022-08-02T18:15:14.494Z,25.82
2022-08-02T18:18:29.930Z,25.34
2022-08-02T18:21:35.945Z,25.06
2022-08-02T18:24:41.798Z,25.27
2022-08-02T18:27:50.417Z,25.48
2022-08-02T18:30:55.911Z,25.58
2022-08-02T18:34:02.593Z,25.63
2022-08-02T18:37:08.655Z,25.64
2022-08-02T18:40:15.001Z,25.64
2022-08-02T18:43:25.440Z,25.61
2022-08-02T18:46:34.832Z,25.57
2022-08-02T18:49:46.355Z,25.53
2022-08-02T18:52:53.508Z,25.49
2022-08-02T18:56:04.036Z,25.47
2022-08-02T18:59:10.867Z,25.43
2022-08-02T19:02:16.680Z,25.39
2022-08-02T19:05:22.864Z,25.34
2022-08-02T19:09:05.519Z,25.29
2022-08-02T19:12:15.310Z,25.24
2022-08-02T19:15:21.494Z,25.19
2022-08-02T19:18:30.197Z,25.15
2022-08-02T19:22:15.472Z,25.10
2022-08-02T19:25:01.875Z,25.02
2022-08-02T19:28:08.491Z,24.94
2022-08-02T19:31:14.037Z,24.89
2022-08-02T19:34:19.446Z,24.84
2022-08-02T19:37:31.496Z,24.78
2022-08-02T19:40:44.508Z,24.71
2022-08-02T19:44:24.873Z,24.65
2022-08-02T19:47:19.251Z,24.59
2022-08-02T19:50:25.930Z,24.52
2022-08-02T19:53:48.024Z,24.47
2022-08-02T19:56:54.014Z,24.42
2022-08-02T20:00:03.092Z,24.37
2022-08-02T20:03:08.599Z,24.31
2022-08-02T20:06:29.500Z,24.25
2022-08-02T20:09:46.850Z,24.19
2022-08-02T20:12:54.111Z,24.12
2022-08-02T20:16:00.512Z,24.05
2022-08-02T20:19:08.303Z,23.99
2022-08-02T20:22:16.181Z,23.92
2022-08-02T20:25:23.811Z,23.86
2022-08-02T20:28:34.782Z,23.79
2022-08-02T20:31:38.727Z,23.73
2022-08-02T20:34:48.543Z,23.65
2022-08-02T20:38:02.287Z,23.62
2022-08-02T20:41:10.560Z,23.58
2022-08-02T20:44:31.169Z,23.53
2022-08-02T20:47:39.305Z,23.48
2022-08-02T20:50:53.248Z,23.44
2022-08-02T20:53:58.856Z,23.39
2022-08-02T20:57:07.204Z,23.33
2022-08-02T21:00:15.200Z,23.28
2022-08-02T21:03:21.111Z,23.23
2022-08-02T21:06:29.890Z,23.19
2022-08-02T21:09:53.667Z,23.16
2022-08-02T21:13:00.034Z,23.15
2022-08-02T21:16:25.165Z,23.10
2022-08-02T21:19:31.033Z,23.05
2022-08-02T21:22:36.583Z,23.01
2022-08-02T21:25:57.094Z,22.97
2022-08-02T21:29:04.436Z,22.91
2022-08-02T21:32:11.400Z,22.85
2022-08-02T21:35:15.749Z,22.81
2022-08-02T21:38:35.911Z,22.73
2022-08-02T21:41:46.832Z,22.70
2022-08-02T21:44:52.973Z,22.68
2022-08-02T21:47:58.425Z,22.65
2022-08-02T21:51:04.049Z,22.62
2022-08-02T21:54:18.111Z,22.59
2022-08-02T21:57:26.112Z,22.54
2022-08-02T22:00:40.401Z,22.50
2022-08-02T22:03:55.610Z,22.45
2022-08-02T22:07:01.409Z,22.39
2022-08-02T22:10:09.765Z,22.36
2022-08-02T22:13:16.060Z,22.32
2022-08-02T22:16:23.079Z,22.27
2022-08-02T22:19:28.485Z,22.23
2022-08-02T22:22:34.309Z,22.18
2022-08-02T22:25:40.436Z,22.14
2022-08-02T22:28:51.160Z,22.10
2022-08-02T22:31:58.462Z,22.04
2022-08-02T22:35:08.668Z,21.98
2022-08-02T22:38:18.433Z,21.95
2022-08-02T22:41:24.248Z,21.90
2022-08-02T22:44:29.899Z,21.85
2022-08-02T22:47:38.865Z,21.82
2022-08-02T22:50:56.369Z,21.79
2022-08-02T22:54:02.356Z,21.75
2022-08-02T22:57:11.379Z,21.72
2022-08-02T23:00:18.680Z,21.69
2022-08-02T23:03:24.279Z,21.66
2022-08-02T23:06:29.768Z,21.63
2022-08-02T23:09:35.381Z,21.59
2022-08-02T23:12:40.861Z,21.56
2022-08-02T23:16:03.809Z,21.54
2022-08-02T23:19:26.779Z,21.52
2022-08-02T23:22:32.506Z,21.50
2022-08-02T23:25:38.470Z,21.49
2022-08-02T23:28:43.972Z,21.46
2022-08-02T23:31:49.492Z,21.43
2022-08-02T23:34:56.836Z,21.38
2022-08-02T23:38:03.923Z,21.36
2022-08-02T23:55:11.522Z,20.94
2022-08-02T23:58:17.894Z,20.96
